createdAt,value
2022-12-23T00:02:13.019Z,4.8
2022-12-23T00:07:21.072Z,4.9
2022-12-23T00:12:29.338Z,4.9
2022-12-23T00:17:37.430Z,4.9
2022-12-23T00:22:45.601Z,5
2022-12-23T00:27:53.756Z,4.9
2022-12-23T00:33:01.947Z,4.9
2022-12-23T00:38:10.121Z,4.9
2022-12-23T00:43:18.287Z,5
2022-12-23T00:48:26.467Z,5.1
2022-12-23T00:53:34.643Z,5.2
2022-12-23T00:58:42.829Z,5.1
2022-12-23T01:03:50.988Z,5.3
2022-12-23T01:08:59.170Z,5.3
2022-12-23T01:14:07.338Z,5.4
2022-12-23T01:19:15.510Z,5.4
2022-12-23T01:24:23.681Z,5.4
2022-12-23T01:29:31.866Z,5.5
2022-12-23T01:34:40.067Z,5.6
2022-12-23T01:39:48.202Z,5.6
2022-12-23T01:44:56.389Z,5.6
2022-12-23T01:50:04.632Z,5.7
2022-12-23T01:55:12.819Z,5.7
2022-12-23T02:00:20.985Z,5.8
2022-12-23T02:05:29.186Z,5.9
2022-12-23T02:10:37.368Z,5.9
2022-12-23T02:15:45.508Z,6
2022-12-23T02:20:53.682Z,6
2022-12-23T02:26:01.841Z,6.1
2022-12-23T02:31:10.028Z,6.1
2022-12-23T02:36:18.195Z,6.2
2022-12-23T02:41:26.370Z,6.2
2022-12-23T02:46:34.545Z,6.2
2022-12-23T02:51:42.745Z,6.2
2022-12-23T02:56:50.885Z,6.3
2022-12-23T03:01:59.062Z,6.2
2022-12-23T03:07:07.240Z,6.3
2022-12-23T03:12:15.402Z,6.3
2022-12-23T03:22:31.746Z,6.4
2022-12-23T03:27:39.936Z,6.5
2022-12-23T03:32:48.102Z,6.5
2022-12-23T03:37:56.284Z,6.5
2022-12-23T03:43:04.438Z,6.5
2022-12-23T03:48:12.625Z,6.6
2022-12-23T03:53:20.860Z,6.6
2022-12-23T04:03:37.143Z,6.6
2022-12-23T04:08:45.329Z,6.6
2022-12-23T04:13:53.502Z,6.7
2022-12-23T04:19:01.667Z,6.7
2022-12-23T04:24:09.827Z,6.7
2022-12-23T04:29:18.005Z,6.8
2022-12-23T04:34:26.217Z,6.8
2022-12-23T04:39:34.364Z,7
2022-12-23T04:44:42.535Z,7
2022-12-23T04:49:50.755Z,7
2022-12-23T04:54:58.873Z,7
2022-12-23T05:00:07.057Z,7.1
2022-12-23T05:05:15.234Z,7.1
2022-12-23T05:10:23.391Z,7.1
2022-12-23T05:15:31.573Z,7.1
2022-12-23T05:20:39.749Z,7.1
2022-12-23T05:25:47.911Z,7.2
2022-12-23T05:30:56.080Z,7.1
2022-12-23T05:36:04.305Z,7.2
2022-12-23T05:41:12.452Z,7.1
2022-12-23T05:46:20.623Z,7.2
2022-12-23T05:51:28.788Z,7.2
2022-12-23T05:56:37.026Z,7.2
2022-12-23T06:01:45.136Z,7.2
2022-12-23T06:06:53.321Z,7.2
2022-12-23T06:12:01.506Z,7.2
2022-12-23T06:17:09.658Z,7.3
2022-12-23T06:22:17.836Z,7.3
2022-12-23T06:27:26.023Z,7.3
2022-12-23T06:32:34.162Z,7.3
2022-12-23T06:37:42.403Z,7.3
2022-12-23T06:47:58.681Z,7.3
2022-12-23T06:53:06.974Z,7.3
2022-12-23T06:58:15.034Z,7.2
2022-12-23T07:03:23.229Z,7.2
2022-12-23T07:08:31.390Z,7.2
2022-12-23T07:13:39.570Z,7.2
2022-12-23T07:18:47.796Z,7.2
2022-12-23T07:23:55.949Z,7.2
2022-12-23T07:29:04.073Z,7.2
2022-12-23T07:34:12.245Z,7.2
2022-12-23T07:39:20.413Z,7.2
2022-12-23T07:44:28.589Z,7.2
2022-12-23T07:49:36.790Z,7.3
2022-12-23T07:54:44.931Z,7.3
2022-12-23T07:59:53.114Z,7.3
2022-12-23T08:05:01.289Z,7.3
2022-12-23T08:10:09.493Z,7.3
2022-12-23T08:15:17.628Z,7.4
2022-12-23T08:20:25.893Z,7.4
2022-12-23T08:25:34.020Z,7.4
2022-12-23T08:30:42.152Z,7.4
2022-12-23T08:35:50.328Z,7.4
2022-12-23T08:40:58.541Z,7.3
2022-12-23T08:46:06.679Z,7.3
2022-12-23T08:51:14.872Z,7.3
2022-12-23T08:56:23.031Z,7.4
2022-12-23T09:01:31.204Z,7.4
2022-12-23T09:06:39.370Z,7.4
2022-12-23T09:11:47.550Z,7.4
2022-12-23T09:16:55.729Z,7.4
2022-12-23T09:22:03.906Z,7.5
2022-12-23T09:27:12.058Z,7.5
2022-12-23T09:32:20.249Z,7.5
2022-12-23T09:37:28.409Z,7.5
2022-12-23T09:42:36.603Z,7.5
2022-12-23T09:47:44.779Z,7.6
2022-12-23T09:52:52.943Z,7.5
2022-12-23T09:58:01.135Z,7.3
2022-12-23T10:03:09.292Z,7.4
2022-12-23T10:08:17.453Z,7.4
2022-12-23T10:13:25.626Z,7.4
2022-12-23T10:18:33.807Z,7.5
2022-12-23T10:23:41.974Z,7.7
2022-12-23T10:28:50.152Z,7.7
2022-12-23T10:33:58.317Z,7.7
2022-12-23T10:39:06.559Z,7.7
2022-12-23T10:44:14.942Z,7.8
2022-12-23T10:49:23.041Z,7.6
2022-12-23T10:54:31.162Z,7.4
2022-12-23T10:59:39.366Z,7.2
2022-12-23T11:04:47.574Z,7.2
2022-12-23T11:09:55.716Z,7.1
2022-12-23T11:15:03.825Z,7
2022-12-23T11:20:11.904Z,6.9
2022-12-23T11:25:20.282Z,6.9
2022-12-23T11:35:36.667Z,7.1
2022-12-23T11:40:44.576Z,7.3
2022-12-23T11:45:52.944Z,7.4
2022-12-23T11:51:01.084Z,7.4
2022-12-23T11:56:09.244Z,7.4
2022-12-23T12:01:17.428Z,7.2
2022-12-23T12:06:25.635Z,7.1
2022-12-23T12:11:33.817Z,7.1
2022-12-23T12:16:42.049Z,7
2022-12-23T12:21:50.063Z,6.9
2022-12-23T12:26:58.334Z,6.9
2022-12-23T12:32:06.497Z,6.9
2022-12-23T12:37:14.788Z,7.1
2022-12-23T12:42:22.967Z,7.4
2022-12-23T12:47:31.145Z,7.4
2022-12-23T12:52:39.418Z,7.9
2022-12-23T12:57:47.533Z,7.9
2022-12-23T13:02:55.671Z,7.6
2022-12-23T13:08:03.841Z,7.3
2022-12-23T13:13:12.032Z,7.3
2022-12-23T13:18:20.221Z,7.2
2022-12-23T13:23:28.364Z,7.2
2022-12-23T13:28:36.519Z,7.2
2022-12-23T13:38:52.920Z,6.9
2022-12-23T13:44:01.059Z,6.9
2022-12-23T13:49:09.265Z,6.9
2022-12-23T13:54:17.435Z,6.9
2022-12-23T13:59:25.590Z,6.9
2022-12-23T14:04:33.717Z,6.8
2022-12-23T14:09:41.953Z,6.8
2022-12-23T14:14:50.076Z,6.7
2022-12-23T14:19:58.303Z,6.8
2022-12-23T14:25:06.467Z,6.8
2022-12-23T14:30:14.685Z,6.7
2022-12-23T14:35:22.801Z,6.5
2022-12-23T14:40:30.967Z,6.4
2022-12-23T14:45:39.145Z,6.2
2022-12-23T14:50:47.329Z,6
2022-12-23T14:55:55.481Z,5.7
2022-12-23T15:01:03.691Z,5.5
2022-12-23T15:06:11.855Z,5.4
2022-12-23T15:11:20.002Z,5.4
2022-12-23T15:16:28.170Z,5.4
2022-12-23T15:21:36.352Z,5.4
2022-12-23T15:26:44.482Z,5.4
2022-12-23T15:31:52.560Z,5.4
2022-12-23T15:37:00.873Z,5.4
2022-12-23T15:42:09.025Z,5.4
2022-12-23T15:47:17.075Z,5.4
2022-12-23T15:52:25.346Z,5.4
2022-12-23T15:57:33.572Z,5.6
2022-12-23T16:02:41.587Z,5.7
2022-12-23T16:07:50.003Z,5.8
2022-12-23T16:12:58.092Z,5.7
2022-12-23T16:18:06.286Z,5.7
2022-12-23T16:23:14.286Z,5.6
2022-12-23T16:28:22.629Z,5.7
2022-12-23T16:33:30.756Z,5.6
2022-12-23T16:38:38.979Z,5.6
2022-12-23T16:43:47.120Z,5.6
2022-12-23T16:48:55.320Z,5.7
2022-12-23T16:54:03.642Z,5.8
2022-12-23T16:59:11.785Z,5.8
2022-12-23T17:04:19.806Z,5.8
2022-12-23T17:09:28.045Z,5.9
2022-12-23T17:14:36.160Z,5.9
2022-12-23T17:19:44.393Z,6
2022-12-23T17:24:52.585Z,6
2022-12-23T17:30:00.547Z,6
2022-12-23T17:35:08.869Z,6
2022-12-23T17:40:16.898Z,6
2022-12-23T17:45:25.174Z,6
2022-12-23T17:50:33.412Z,6
2022-12-23T17:55:41.593Z,6
2022-12-23T18:00:49.815Z,6
2022-12-23T18:05:57.824Z,6
2022-12-23T18:11:06.048Z,5.9
2022-12-23T18:16:14.169Z,5.9
2022-12-23T18:21:22.344Z,5.9
2022-12-23T18:26:30.457Z,5.9
2022-12-23T18:31:38.674Z,5.9
2022-12-23T18:36:46.944Z,5.9
2022-12-23T18:41:55.024Z,5.9
2022-12-23T18:47:03.166Z,5.9
2022-12-23T18:52:11.314Z,5.8
2022-12-23T18:57:19.491Z,5.8
2022-12-23T19:02:27.748Z,5.8
2022-12-23T19:07:35.917Z,5.8
2022-12-23T19:12:44.021Z,5.8
2022-12-23T19:17:52.187Z,5.8
2022-12-23T19:23:00.416Z,5.8
2022-12-23T19:28:08.539Z,5.8
2022-12-23T19:33:16.803Z,5.8
2022-12-23T19:38:24.887Z,5.8
2022-12-23T19:43:33.205Z,5.8
2022-12-23T19:48:41.393Z,5.7
2022-12-23T19:53:49.528Z,5.8
2022-12-23T19:58:57.699Z,5.8
2022-12-23T20:04:05.855Z,5.8
2022-12-23T20:09:13.993Z,5.8
2022-12-23T20:14:22.087Z,5.8
2022-12-23T20:19:30.280Z,5.8
2022-12-23T20:24:38.445Z,5.8
2022-12-23T20:29:46.622Z,5.7
2022-12-23T20:34:54.820Z,5.8
2022-12-23T20:40:02.979Z,5.8
2022-12-23T20:45:11.159Z,5.7
2022-12-23T20:50:19.316Z,5.7
2022-12-23T20:55:27.476Z,5.7
2022-12-23T21:00:35.703Z,5.7
2022-12-23T21:05:43.834Z,5.7
2022-12-23T21:10:51.995Z,5.8
2022-12-23T21:16:00.241Z,5.8
2022-12-23T21:21:08.350Z,5.7
2022-12-23T21:26:16.565Z,5.7
2022-12-23T21:31:24.690Z,5.7
2022-12-23T21:36:32.877Z,5.7
2022-12-23T21:41:41.061Z,5.7
2022-12-23T21:46:49.299Z,5.7
2022-12-23T21:51:57.416Z,5.7
2022-12-23T21:57:05.575Z,5.7
2022-12-23T22:02:13.755Z,5.7
2022-12-23T22:07:21.922Z,5.7
2022-12-23T22:12:30.115Z,5.7
2022-12-23T22:17:38.338Z,5.7
2022-12-23T22:22:46.493Z,5.7
2022-12-23T22:27:54.697Z,5.7
2022-12-23T22:33:02.827Z,5.7
2022-12-23T22:38:11.013Z,5.7
2022-12-23T22:43:19.225Z,5.7
2022-12-23T22:48:27.326Z,5.7
2022-12-23T22:53:35.626Z,5.7
2022-12-23T22:58:43.701Z,5.7
2022-12-23T23:03:51.867Z,5.7
2022-12-23T23:09:00.037Z,5.7
2022-12-23T23:14:08.207Z,5.7
2022-12-23T23:19:16.483Z,5.8
2022-12-23T23:24:24.586Z,5.7
2022-12-23T23:29:32.713Z,5.7
2022-12-23T23:34:40.987Z,5.7
2022-12-23T23:39:49.080Z,5.8
2022-12-23T23:44:57.252Z,5.8
2022-12-23T23:50:05.424Z,5.8
2022-12-23T23:55:13.591Z,5.8
